createdAt,value
2023-05-24T00:04:30.191Z,11.82
2023-05-24T00:09:34.587Z,10.85
2023-05-24T00:14:40.133Z,11.82
2023-05-24T00:19:44.305Z,12.18
2023-05-24T00:24:48.796Z,12.77
2023-05-24T00:29:54.816Z,14.43
2023-05-24T00:34:59.428Z,14.50
2023-05-24T00:40:04.412Z,15.13
2023-05-24T00:45:11.836Z,16.17
2023-05-24T00:50:17.356Z,15.45
2023-05-24T00:55:21.986Z,17.73
2023-05-24T01:00:28.636Z,18.02
2023-05-24T01:05:33.457Z,19.30
2023-05-24T01:10:51.556Z,20.05
2023-05-24T01:16:02.625Z,21.83
2023-05-24T01:21:25.525Z,19.92
2023-05-24T01:26:43.588Z,21.55
2023-05-24T01:31:51.242Z,22.45
2023-05-24T01:36:56.110Z,20.88
2023-05-24T01:42:12.738Z,21.55
2023-05-24T01:47:36.281Z,21.55
2023-05-24T01:52:45.096Z,19.50
2023-05-24T01:57:51.889Z,19.67
2023-05-24T02:02:58.858Z,22.40
2023-05-24T02:08:03.371Z,21.30
2023-05-24T02:13:08.137Z,23.77
2023-05-24T02:18:14.237Z,23.00
2023-05-24T02:23:19.724Z,22.73
2023-05-24T02:28:24.050Z,23.45
2023-05-24T02:33:30.368Z,21.67
2023-05-24T02:38:34.708Z,20.58
2023-05-24T02:43:39.055Z,22.10
2023-05-24T02:48:44.921Z,22.50
2023-05-24T02:53:49.386Z,21.75
2023-05-24T02:58:54.367Z,22.45
2023-05-24T03:04:00.612Z,22.20
2023-05-24T03:09:05.652Z,22.15
2023-05-24T03:19:19.424Z,20.60
2023-05-24T03:24:26.116Z,21.65
2023-05-24T03:29:30.638Z,19.75
2023-05-24T03:34:36.229Z,19.20
2023-05-24T03:39:40.733Z,19.58
2023-05-24T03:44:57.614Z,18.88
2023-05-24T03:50:03.660Z,18.33
2023-05-24T03:55:09.037Z,17.80
2023-05-24T04:00:15.402Z,19.10
2023-05-24T04:05:27.153Z,17.98
2023-05-24T04:10:31.508Z,17.35
2023-05-24T04:15:35.968Z,17.33
2023-05-24T04:20:42.217Z,18.55
2023-05-24T04:25:47.319Z,18.10
2023-05-24T04:30:53.990Z,16.95
2023-05-24T04:36:01.898Z,17.35
2023-05-24T04:41:07.964Z,18.05
2023-05-24T04:46:12.251Z,19.25
2023-05-24T04:51:17.998Z,18.02
2023-05-24T04:56:22.948Z,18.52
2023-05-24T05:01:27.849Z,18.70
2023-05-24T05:06:35.160Z,17.73
2023-05-24T05:11:39.654Z,16.73
2023-05-24T05:16:44.718Z,16.40
2023-05-24T05:21:50.869Z,19.63
2023-05-24T05:26:55.048Z,15.27
2023-05-24T05:31:59.334Z,19.23
2023-05-24T05:37:05.108Z,18.13
2023-05-24T05:42:09.652Z,16.35
2023-05-24T05:47:13.947Z,13.77
2023-05-24T05:52:19.944Z,13.18
2023-05-24T05:57:24.620Z,13.52
2023-05-24T06:02:29.525Z,15.32
2023-05-24T06:07:35.990Z,13.32
2023-05-24T06:12:40.809Z,12.52
2023-05-24T06:17:47.951Z,13.65
2023-05-24T06:22:53.805Z,11.52
2023-05-24T06:27:58.279Z,11.90
2023-05-24T06:33:02.763Z,10.95
2023-05-24T06:38:09.299Z,8.07
2023-05-24T06:43:13.727Z,7.03
2023-05-24T06:48:18.757Z,7.25
2023-05-24T06:53:25.287Z,7.55
2023-05-24T06:58:29.739Z,6.07
2023-05-24T07:03:34.086Z,6.47
2023-05-24T07:08:39.904Z,5.75
2023-05-24T07:13:44.109Z,6.45
2023-05-24T07:18:48.556Z,6.47
2023-05-24T07:23:54.453Z,6.07
2023-05-24T07:28:58.857Z,5.07
2023-05-24T07:34:03.405Z,5.72
2023-05-24T07:39:10.089Z,5.97
2023-05-24T07:44:15.183Z,6.05
2023-05-24T07:49:19.772Z,5.57
2023-05-24T07:54:25.711Z,6.30
2023-05-24T07:59:30.139Z,5.72
2023-05-24T08:04:35.663Z,5.25
2023-05-24T08:09:41.994Z,6.50
2023-05-24T08:14:46.990Z,5.30
2023-05-24T08:24:56.680Z,6.30
2023-05-24T08:30:01.229Z,7.13
2023-05-24T08:35:20.464Z,6.38
2023-05-24T08:40:28.066Z,6.00
2023-05-24T08:45:34.310Z,4.95
2023-05-24T08:50:38.885Z,6.70
2023-05-24T08:55:45.518Z,6.57
2023-05-24T09:00:50.076Z,6.97
2023-05-24T09:05:54.856Z,6.35
2023-05-24T09:11:01.340Z,6.50
2023-05-24T09:16:09.116Z,6.10
2023-05-24T09:21:14.033Z,6.40
2023-05-24T09:31:34.655Z,5.65
2023-05-24T09:36:43.377Z,6.35
2023-05-24T09:41:57.302Z,6.50
2023-05-24T09:47:05.299Z,5.43
2023-05-24T09:52:10.056Z,6.40
2023-05-24T10:02:23.986Z,6.30
2023-05-24T10:07:28.484Z,5.10
2023-05-24T10:12:36.560Z,5.25
2023-05-24T10:17:41.167Z,4.97
2023-05-24T10:22:47.637Z,5.93
2023-05-24T10:27:57.842Z,5.10
2023-05-24T10:33:04.981Z,4.90
2023-05-24T10:38:10.146Z,5.25
2023-05-24T10:43:17.870Z,5.70
2023-05-24T10:48:37.704Z,6.18
2023-05-24T10:53:42.092Z,4.50
2023-05-24T10:59:02.439Z,5.15
2023-05-24T11:04:11.199Z,5.15
2023-05-24T11:09:17.014Z,4.40
2023-05-24T11:14:28.609Z,5.13
2023-05-24T11:19:36.148Z,4.88
2023-05-24T11:24:43.050Z,4.72
2023-05-24T11:36:59.162Z,4.32
2023-05-24T11:42:13.348Z,4.60
2023-05-24T11:47:17.826Z,5.18
2023-05-24T11:52:23.422Z,4.80
2023-05-24T11:57:38.426Z,4.93
2023-05-24T12:02:42.698Z,4.93
2023-05-24T12:07:49.114Z,5.28
2023-05-24T12:13:01.606Z,5.72
2023-05-24T12:23:11.563Z,5.93
2023-05-24T12:28:16.411Z,6.03
2023-05-24T12:33:21.153Z,7.28
2023-05-24T12:38:27.822Z,6.97
2023-05-24T12:43:32.550Z,6.07
2023-05-24T12:48:37.014Z,8.00
2023-05-24T12:53:43.366Z,6.97
2023-05-24T12:58:48.271Z,7.88
2023-05-24T13:03:53.802Z,6.90
2023-05-24T13:08:59.493Z,8.15
2023-05-24T14:48:07.099Z,7.72
2023-05-24T14:53:15.922Z,6.95
2023-05-24T14:58:20.393Z,7.83
2023-05-24T15:03:26.088Z,6.30
2023-05-24T15:08:30.774Z,7.03
2023-05-24T15:13:35.125Z,6.20
2023-05-24T15:18:41.063Z,6.82
2023-05-24T15:23:45.258Z,7.78
2023-05-24T15:28:49.465Z,7.07
2023-05-24T15:33:55.213Z,8.00
2023-05-24T15:38:59.751Z,7.32
2023-05-24T15:44:08.782Z,7.38
2023-05-24T15:49:14.718Z,7.10
2023-05-24T15:54:19.515Z,7.68
2023-05-24T15:59:26.019Z,8.15
2023-05-24T16:04:31.713Z,7.50
2023-05-24T16:09:35.946Z,8.75
2023-05-24T16:14:40.158Z,7.68
2023-05-24T16:19:47.149Z,8.02
2023-05-24T16:24:51.615Z,7.75
2023-05-24T16:29:55.902Z,8.23
2023-05-24T16:35:01.485Z,8.45
2023-05-24T16:40:07.522Z,7.63
2023-05-24T16:45:14.878Z,7.40
2023-05-24T16:50:20.904Z,7.95
2023-05-24T16:55:25.313Z,7.60
2023-05-24T17:00:29.501Z,8.60
2023-05-24T17:05:35.454Z,8.27
2023-05-24T17:18:30.119Z,9.13
2023-05-24T17:23:37.812Z,9.82
2023-05-24T17:28:45.202Z,9.18
2023-05-24T17:33:49.498Z,10.20
2023-05-24T17:38:55.054Z,10.45
2023-05-24T17:43:59.729Z,10.02
2023-05-24T17:49:04.501Z,10.05
2023-05-24T17:59:14.028Z,10.20
2023-05-24T18:04:18.253Z,9.80
2023-05-24T18:09:23.888Z,11.63
2023-05-24T18:14:28.854Z,11.93
2023-05-24T18:19:33.493Z,11.23
2023-05-24T18:24:39.099Z,11.07
2023-05-24T18:29:43.519Z,10.43
2023-05-24T18:34:48.091Z,10.73
2023-05-24T18:39:53.844Z,11.07
2023-05-24T18:44:58.034Z,10.77
2023-05-24T18:50:02.266Z,11.87
2023-05-24T18:55:11.378Z,11.75
2023-05-24T19:00:19.271Z,12.95
2023-05-24T19:05:26.057Z,13.00
2023-05-24T19:10:31.630Z,11.20
2023-05-24T19:15:37.363Z,13.02
2023-05-24T19:20:41.574Z,13.40
2023-05-24T19:25:50.320Z,12.85
2023-05-24T19:30:54.608Z,12.48
2023-05-24T19:35:59.156Z,11.32
2023-05-24T19:41:05.144Z,11.93
2023-05-24T19:46:11.154Z,12.07
2023-05-24T19:51:15.911Z,14.30
2023-05-24T19:56:21.924Z,13.52
2023-05-24T20:01:27.157Z,12.55
2023-05-24T20:06:31.526Z,14.02
2023-05-24T20:11:37.449Z,13.10
2023-05-24T20:16:42.013Z,13.68
2023-05-24T20:21:46.231Z,13.30
2023-05-24T20:26:52.016Z,13.13
2023-05-24T20:31:56.397Z,12.68
2023-05-24T20:37:00.905Z,13.98
2023-05-24T20:42:08.273Z,12.25
2023-05-24T20:47:12.475Z,12.02
2023-05-24T20:52:16.840Z,16.03
2023-05-24T20:57:22.627Z,12.77
2023-05-24T21:02:29.044Z,13.43
2023-05-24T21:07:33.440Z,16.27
2023-05-24T21:12:39.185Z,14.45
2023-05-24T21:17:43.621Z,14.38
2023-05-24T21:22:47.920Z,15.18
2023-05-24T21:27:53.520Z,14.93
2023-05-24T21:32:57.849Z,14.45
2023-05-24T21:38:02.388Z,15.55
2023-05-24T21:43:12.329Z,15.90
2023-05-24T21:48:17.058Z,16.48
2023-05-24T21:53:21.626Z,16.98
2023-05-24T21:58:27.355Z,16.95
2023-05-24T22:03:31.838Z,15.43
2023-05-24T22:08:36.496Z,15.40
2023-05-24T22:13:50.814Z,14.00
2023-05-24T22:18:56.865Z,13.82
2023-05-24T22:24:01.887Z,15.43
2023-05-24T22:29:08.033Z,13.82
2023-05-24T22:34:13.135Z,13.07
2023-05-24T22:39:17.802Z,15.35
2023-05-24T22:44:23.748Z,13.88
2023-05-24T22:49:37.219Z,14.35
2023-05-24T22:54:41.421Z,13.90
2023-05-24T22:59:47.202Z,15.48
2023-05-24T23:04:51.578Z,16.20
2023-05-24T23:09:56.100Z,15.55
2023-05-24T23:15:01.637Z,14.87
2023-05-24T23:20:10.128Z,16.00
2023-05-24T23:25:14.430Z,14.48
2023-05-24T23:30:20.455Z,15.57
2023-05-24T23:35:24.693Z,17.10
2023-05-24T23:40:30.062Z,16.87
2023-05-24T23:45:36.083Z,14.43
2023-05-24T23:50:53.078Z,14.52
2023-05-24T23:55:57.913Z,15.52
